Time;durP1;ratioP1;P1;durP2;ratioP2;P2;SDS_P1;SDS_P2;PMS_P1;PMS_P2;Temp;Humidity;BMP_temperature;BMP_pressure;BME280_temperature;BME280_humidity;BME280_pressure;Samples;Min_cycle;Max_cycle;Signal;HPM_P1;HPM_P2
2023/07/08 00:04:26;;;;;;;11.40;7.55;;;;;;;27.58;100.00;100669.34;21144760;27;20100;-80
2023/07/08 00:14:49;;;;;;;10.02;7.22;;;;;;;27.48;100.00;100668.09;21205752;27;20150;-80
2023/07/08 00:25:15;;;;;;;12.55;7.68;;;;;;;27.41;100.00;100677.53;21144837;28;20047;-80
2023/07/08 00:35:40;;;;;;;13.05;7.93;;;;;;;27.31;100.00;100680.72;21186534;27;20047;-80
2023/07/08 00:46:17;;;;;;;11.98;8.50;;;;;;;27.20;100.00;100669.59;21174579;27;20499;-80
2023/07/08 00:56:44;;;;;;;9.98;6.97;;;;;;;27.10;100.00;100662.94;21156771;27;20047;-80
2023/07/08 01:07:09;;;;;;;10.80;7.03;;;;;;;27.13;100.00;100656.47;21161277;27;20051;-80
2023/07/08 01:17:32;;;;;;;9.27;6.43;;;;;;;27.16;100.00;100667.16;21189267;27;20043;-81
2023/07/08 01:27:59;;;;;;;10.27;6.20;;;;;;;27.18;100.00;100663.38;21162956;27;20047;-80
2023/07/08 01:38:25;;;;;;;10.93;6.60;;;;;;;27.14;100.00;100675.34;21167605;27;21055;-81
2023/07/08 01:48:55;;;;;;;10.85;6.85;;;;;;;27.06;100.00;100664.06;21172172;27;20051;-81
2023/07/08 01:59:17;;;;;;;8.50;6.18;;;;;;;26.98;100.00;100664.47;21176615;27;20101;-80
2023/07/08 02:09:42;;;;;;;11.45;6.43;;;;;;;26.95;100.00;100664.66;21148497;27;20559;-81
2023/07/08 02:20:06;;;;;;;9.88;5.97;;;;;;;26.90;100.00;100666.72;21179841;27;20139;-80
2023/07/08 02:30:31;;;;;;;11.27;6.60;;;;;;;26.91;100.00;100667.63;21167888;28;20517;-80
2023/07/08 02:40:55;;;;;;;9.68;6.53;;;;;;;26.88;100.00;100679.44;21147093;28;20051;-81
2023/07/08 02:51:19;;;;;;;10.75;6.47;;;;;;;26.82;100.00;100677.06;21172004;28;20392;-80
2023/07/08 03:01:42;;;;;;;12.70;6.90;;;;;;;26.81;100.00;100696.97;21115521;28;20052;-80
2023/07/08 03:12:08;;;;;;;14.75;8.23;;;;;;;26.78;100.00;100691.69;21186066;27;20043;-80
2023/07/08 03:22:31;;;;;;;12.35;6.80;;;;;;;26.79;100.00;100698.00;21208975;27;20045;-80
2023/07/08 03:32:55;;;;;;;11.50;6.60;;;;;;;26.94;100.00;100702.66;21206628;27;20146;-81
2023/07/08 03:43:18;;;;;;;8.98;6.40;;;;;;;27.20;100.00;100707.56;21178072;27;20410;-81
2023/07/08 03:53:42;;;;;;;9.48;6.35;;;;;;;27.55;100.00;100724.66;21229743;27;20069;-80
2023/07/08 04:04:06;;;;;;;10.48;5.93;;;;;;;27.97;100.00;100726.78;21220546;27;20051;-80
2023/07/08 04:14:33;;;;;;;9.82;5.57;;;;;;;28.40;100.00;100718.91;21242425;27;20077;-80
2023/07/08 04:24:56;;;;;;;8.30;5.50;;;;;;;28.81;100.00;100724.63;21273400;27;20454;-82
2023/07/08 04:35:21;;;;;;;8.43;5.10;;;;;;;29.35;100.00;100727.63;21196250;27;20134;-80
2023/07/08 04:45:46;;;;;;;8.35;5.70;;;;;;;29.75;100.00;100735.00;21214143;27;20437;-81
2023/07/08 04:56:11;;;;;;;8.98;5.47;;;;;;;30.27;100.00;100739.78;21181744;27;20270;-81
2023/07/08 05:06:34;;;;;;;12.80;6.07;;;;;;;30.70;100.00;100754.19;21194769;27;20066;-81
2023/07/08 05:16:58;;;;;;;10.98;5.03;;;;;;;31.04;100.00;100741.81;21200341;27;20055;-82
2023/07/08 05:27:21;;;;;;;11.13;4.68;;;;;;;31.54;100.00;100746.44;21187317;27;20053;-81
2023/07/08 05:37:46;;;;;;;11.18;5.00;;;;;;;32.04;98.71;100761.88;21199289;27;20503;-81
2023/07/08 05:48:09;;;;;;;6.93;4.43;;;;;;;32.44;90.27;100749.75;21206629;27;20490;-79
2023/07/08 05:58:33;;;;;;;6.32;4.70;;;;;;;32.97;81.23;100750.25;21173936;27;20111;-79
2023/07/08 06:08:56;;;;;;;7.95;4.50;;;;;;;33.45;66.52;100763.84;21192725;27;20417;-78
2023/07/08 06:19:00;;;;;;;6.97;4.40;;;;;;;34.01;58.11;100757.38;21184139;27;20051;-79
2023/07/08 06:29:15;;;;;;;8.73;4.15;;;;;;;34.82;53.78;100763.47;21119199;28;20055;-77
2023/07/08 06:39:39;;;;;;;9.73;4.45;;;;;;;35.56;50.32;100776.16;21098390;28;20040;-77
2023/07/08 06:50:02;;;;;;;7.85;4.30;;;;;;;35.81;48.72;100774.88;21155957;27;20055;-76
2023/07/08 07:00:27;;;;;;;7.10;4.50;;;;;;;35.78;49.41;100784.25;21082848;28;20056;-77
2023/07/08 07:10:49;;;;;;;8.95;4.05;;;;;;;36.16;47.88;100799.19;21162272;27;20051;-76
2023/07/08 07:21:13;;;;;;;7.35;4.00;;;;;;;36.59;45.99;100798.88;21123058;28;20055;-79
2023/07/08 07:31:36;;;;;;;9.40;3.90;;;;;;;36.56;45.20;100810.19;21140092;27;20040;-80
2023/07/08 07:42:00;;;;;;;9.10;3.90;;;;;;;36.56;44.00;100816.53;21094950;28;20062;-80
2023/07/08 07:52:24;;;;;;;6.82;3.83;;;;;;;36.57;43.39;100821.03;21128212;28;20407;-80
2023/07/08 08:02:48;;;;;;;6.13;3.40;;;;;;;36.30;41.44;100832.69;21111487;27;20043;-78
2023/07/08 08:13:11;;;;;;;7.87;3.77;;;;;;;36.18;42.38;100852.19;21131510;27;20055;-81
2023/07/08 08:23:35;;;;;;;8.38;3.88;;;;;;;36.16;44.33;100856.94;21149788;27;20096;-81
2023/07/08 08:33:58;;;;;;;6.17;3.77;;;;;;;36.29;44.10;100877.72;21100250;27;20567;-77
2023/07/08 08:44:29;;;;;;;8.02;4.78;;;;;;;36.41;44.08;100872.97;21076286;27;20047;-81
2023/07/08 08:54:52;;;;;;;7.68;4.18;;;;;;;36.66;43.89;100886.25;21187332;27;20556;-81
2023/07/08 09:05:16;;;;;;;8.55;4.18;;;;;;;36.42;43.88;100865.59;21103459;27;20047;-82
2023/07/08 09:15:39;;;;;;;9.20;3.73;;;;;;;36.61;43.84;100873.91;21122235;27;20629;-82
2023/07/08 09:26:10;;;;;;;7.57;3.45;;;;;;;36.73;41.85;100892.06;21112450;28;20056;-81
2023/07/08 09:36:32;;;;;;;8.25;3.67;;;;;;;36.85;41.87;100887.31;21125880;28;20048;-79
2023/07/08 09:46:58;;;;;;;6.32;3.70;;;;;;;36.81;42.58;100880.38;21125680;28;20044;-80
2023/07/08 09:57:28;;;;;;;7.95;3.88;;;;;;;37.39;42.55;100895.06;21115179;28;20040;-79
2023/07/08 10:07:56;;;;;;;10.77;4.28;;;;;;;37.48;42.46;100899.72;21090104;27;20441;-81
2023/07/08 10:18:26;;;;;;;7.88;3.83;;;;;;;37.36;42.58;100900.84;21114065;27;20062;-77
2023/07/08 10:29:01;;;;;;;6.65;3.80;;;;;;;36.71;42.82;100899.59;21125246;28;20373;-83
2023/07/08 10:39:54;;;;;;;7.63;3.60;;;;;;;36.71;42.95;100891.34;21109291;28;20048;-79
2023/07/08 10:50:34;;;;;;;8.90;3.60;;;;;;;36.79;43.02;100898.88;21105377;28;20399;-82
2023/07/08 11:01:09;;;;;;;9.50;3.83;;;;;;;36.81;43.77;100919.78;21119252;28;20043;-81
2023/07/08 11:11:41;;;;;;;5.40;3.17;;;;;;;37.48;42.20;100910.75;21101471;28;20040;-80
2023/07/08 11:22:10;;;;;;;8.25;4.28;;;;;;;37.42;41.17;100917.69;21097576;28;20563;-83
2023/07/08 11:32:36;;;;;;;8.02;3.58;;;;;;;37.21;40.92;100902.31;21124940;28;20508;-78
2023/07/08 11:43:05;;;;;;;7.72;3.67;;;;;;;36.69;40.94;100912.66;21104905;28;20151;-82
2023/07/08 11:53:48;;;;;;;10.45;3.80;;;;;;;36.61;41.32;100923.44;21137385;28;20543;-82
2023/07/08 12:04:30;;;;;;;10.45;4.07;;;;;;;36.30;42.39;100898.69;21114880;28;20044;-82
2023/07/08 12:15:02;;;;;;;8.00;3.63;;;;;;;36.36;43.47;100893.66;21174649;27;20058;-83
2023/07/08 12:25:32;;;;;;;6.78;3.63;;;;;;;36.35;43.53;100892.81;21220360;27;20507;-82
2023/07/08 12:35:57;;;;;;;8.27;3.70;;;;;;;36.65;43.21;100880.91;21256068;27;20486;-82
2023/07/08 12:46:22;;;;;;;8.55;3.33;;;;;;;36.79;42.46;100875.00;21264766;27;20099;-82
2023/07/08 12:56:50;;;;;;;11.63;3.60;;;;;;;37.07;42.40;100865.03;21225965;27;20047;-83
2023/07/08 13:07:24;;;;;;;8.52;3.50;;;;;;;36.97;42.53;100872.41;21180696;27;20043;-85
2023/07/08 13:17:50;;;;;;;8.90;3.63;;;;;;;37.01;42.59;100852.72;21211681;27;20054;-83
2023/07/08 13:28:18;;;;;;;7.78;3.45;;;;;;;36.86;41.50;100837.63;21221931;27;20076;-80
2023/07/08 13:38:43;;;;;;;10.65;3.90;;;;;;;36.38;42.16;100834.72;21220259;27;20407;-83
2023/07/08 13:49:13;;;;;;;7.65;3.97;;;;;;;36.06;42.88;100832.13;21221197;27;20087;-80
2023/07/08 13:59:37;;;;;;;8.52;3.78;;;;;;;36.00;42.38;100823.56;21220327;27;20059;-83
2023/07/08 14:10:00;;;;;;;13.40;4.10;;;;;;;36.11;42.07;100823.44;21181788;27;20054;-84
2023/07/08 14:20:27;;;;;;;10.45;4.43;;;;;;;35.99;42.81;100821.81;21195944;27;20047;-82
2023/07/08 14:30:50;;;;;;;10.23;4.40;;;;;;;35.87;43.33;100799.06;21187573;27;20379;-83
2023/07/08 14:41:14;;;;;;;9.48;4.72;;;;;;;35.60;43.96;100802.34;21184754;27;20084;-80
2023/07/08 14:51:38;;;;;;;8.60;3.80;;;;;;;35.67;43.25;100784.31;21172180;27;20085;-80
2023/07/08 15:02:16;;;;;;;8.80;4.00;;;;;;;35.26;42.80;100790.72;21188133;27;20054;-82
2023/07/08 15:12:39;;;;;;;8.05;3.85;;;;;;;34.67;45.13;100798.53;21220026;27;20059;-82
2023/07/08 15:23:03;;;;;;;7.68;4.30;;;;;;;34.33;47.18;100798.63;21228736;27;20047;-81
2023/07/08 15:33:26;;;;;;;11.75;5.43;;;;;;;33.78;49.50;100787.69;21230223;27;20070;-82
2023/07/08 15:43:53;;;;;;;9.23;4.65;;;;;;;32.98;54.45;100790.31;21188921;27;20051;-81
2023/07/08 15:54:17;;;;;;;9.40;5.53;;;;;;;32.23;58.68;100789.63;21229316;27;20142;-80
2023/07/08 16:04:41;;;;;;;12.73;5.55;;;;;;;31.52;65.80;100790.22;21190606;27;20042;-80
2023/07/08 16:15:05;;;;;;;12.85;6.28;;;;;;;31.17;69.68;100795.44;21218603;27;20039;-83
2023/07/08 16:25:32;;;;;;;14.85;6.63;;;;;;;30.89;75.18;100810.06;21179431;27;20137;-82
2023/07/08 16:35:54;;;;;;;;;;;;;;;30.72;75.86;100798.56;21211943;27;20047;-80
2023/07/08 16:46:19;;;;;;;15.60;6.90;;;;;;;30.49;81.54;100790.09;21224112;27;19919;-83
2023/07/08 16:56:41;;;;;;;11.88;6.75;;;;;;;30.30;85.01;100797.69;21211087;27;20046;-81
2023/07/08 17:07:09;;;;;;;13.85;6.13;;;;;;;30.00;88.21;100799.66;21216344;27;20047;-81
2023/07/08 17:17:32;;;;;;;15.53;7.00;;;;;;;29.83;88.13;100789.84;21244590;27;20080;-81
2023/07/08 17:27:57;;;;;;;13.55;6.75;;;;;;;29.61;91.61;100800.34;21277151;27;20061;-80
2023/07/08 17:38:23;;;;;;;13.07;6.78;;;;;;;29.29;95.89;100799.59;21215955;27;20143;-81
2023/07/08 17:48:49;;;;;;;16.40;7.47;;;;;;;29.16;96.28;100798.59;21205420;27;20046;-81
2023/07/08 17:59:17;;;;;;;13.27;6.90;;;;;;;29.03;97.44;100814.78;21188624;27;20057;-82
2023/07/08 18:09:42;;;;;;;13.63;7.32;;;;;;;28.85;99.60;100821.31;21173471;27;20043;-79
2023/07/08 18:20:07;;;;;;;13.27;7.72;;;;;;;28.75;100.00;100837.28;21215393;27;20055;-80
2023/07/08 18:30:32;;;;;;;14.85;7.00;;;;;;;28.62;100.00;100836.19;21208721;27;20047;-79
2023/07/08 18:40:39;;;;;;;14.98;9.50;;;;;;;28.50;100.00;100845.94;21216846;27;20111;-80
2023/07/08 18:51:12;;;;;;;13.43;6.80;;;;;;;28.43;100.00;100866.28;21212876;27;20134;-81
2023/07/08 19:01:37;;;;;;;12.45;7.18;;;;;;;28.38;100.00;100871.09;21201979;27;20052;-82
2023/07/08 19:12:02;;;;;;;14.25;7.57;;;;;;;28.25;100.00;100870.03;21230363;27;20511;-81
2023/07/08 19:22:24;;;;;;;15.93;9.77;;;;;;;28.16;100.00;100900.41;21224669;27;20419;-81
2023/07/08 19:32:51;;;;;;;11.35;7.20;;;;;;;28.05;100.00;100908.25;21217575;27;20051;-80
2023/07/08 19:43:14;;;;;;;11.55;6.60;;;;;;;27.94;100.00;100906.13;21228029;27;20065;-81
2023/07/08 19:53:18;;;;;;;17.00;7.15;;;;;;;27.92;100.00;100926.16;21220921;27;20047;-82
2023/07/08 20:03:41;;;;;;;13.90;7.13;;;;;;;27.89;100.00;100932.63;21231133;27;20050;-81
2023/07/08 20:14:06;;;;;;;12.70;7.13;;;;;;;27.75;100.00;100918.91;21211469;27;20391;-81
2023/07/08 20:24:29;;;;;;;16.25;7.80;;;;;;;27.69;100.00;100944.56;21216127;27;20062;-82
2023/07/08 20:34:54;;;;;;;12.25;6.57;;;;;;;27.62;100.00;100940.41;21220417;27;20134;-82
2023/07/08 20:45:17;;;;;;;15.63;7.22;;;;;;;27.55;100.00;100944.38;21214691;27;20039;-81
2023/07/08 20:55:43;;;;;;;13.35;6.93;;;;;;;27.49;100.00;100930.22;21213258;27;20174;-81
2023/07/08 21:06:07;;;;;;;15.52;7.95;;;;;;;27.41;100.00;100927.03;21227603;27;20043;-81
2023/07/08 21:16:32;;;;;;;11.52;7.70;;;;;;;27.33;100.00;100920.16;21219153;27;20054;-81
2023/07/08 21:26:55;;;;;;;14.90;7.22;;;;;;;27.23;100.00;100932.44;21204732;27;20370;-81
2023/07/08 21:37:19;;;;;;;13.95;7.25;;;;;;;27.22;100.00;100925.25;21217323;27;20051;-81
2023/07/08 21:47:41;;;;;;;13.10;7.47;;;;;;;27.13;100.00;100892.31;21214671;27;20043;-81
2023/07/08 21:58:05;;;;;;;11.25;6.57;;;;;;;27.04;100.00;100923.50;21183050;27;20043;-80
2023/07/08 22:08:28;;;;;;;11.95;6.82;;;;;;;26.96;100.00;100904.00;21221647;27;20050;-81
2023/07/08 22:18:54;;;;;;;14.05;7.55;;;;;;;26.87;100.00;100902.59;21174472;27;20826;-81
2023/07/08 22:29:16;;;;;;;11.32;7.18;;;;;;;26.83;100.00;100903.72;21203011;27;20133;-80
2023/07/08 22:39:40;;;;;;;18.40;7.97;;;;;;;26.79;100.00;100887.66;21196402;27;20441;-81
2023/07/08 22:50:03;;;;;;;12.15;7.32;;;;;;;26.69;100.00;100864.69;21216509;27;20495;-82
2023/07/08 23:00:31;;;;;;;13.32;7.05;;;;;;;26.69;100.00;100879.13;21204167;28;20043;-81
2023/07/08 23:10:54;;;;;;;13.85;7.57;;;;;;;26.64;100.00;100885.72;21204964;28;20043;-80
2023/07/08 23:21:20;;;;;;;15.40;8.25;;;;;;;26.57;100.00;100899.56;21153183;28;20044;-81
2023/07/08 23:31:42;;;;;;;14.25;7.72;;;;;;;26.55;100.00;100878.91;21188596;27;20093;-82
2023/07/08 23:42:14;;;;;;;14.82;7.43;;;;;;;26.51;100.00;100866.50;21136407;27;20142;-82
2023/07/08 23:52:36;;;;;;;11.07;7.10;;;;;;;26.45;100.00;100858.66;21121695;27;20364;-81
